createdAt,value
2023-06-08T00:01:01.098Z,25.97
2023-06-08T00:03:28.931Z,25.67
2023-06-08T00:06:00.069Z,21.40
2023-06-08T00:08:30.705Z,24.33
2023-06-08T00:10:58.448Z,21.47
2023-06-08T00:13:26.161Z,21.63
2023-06-08T00:15:53.855Z,24.27
2023-06-08T00:18:21.656Z,30.40
2023-06-08T00:20:49.390Z,25.93
2023-06-08T00:23:17.097Z,21.27
2023-06-08T00:25:46.199Z,24.43
2023-06-08T00:28:13.901Z,28.13
2023-06-08T00:30:41.665Z,26.27
2023-06-08T00:33:09.547Z,24.80
2023-06-08T00:35:37.249Z,30.30
2023-06-08T00:38:04.978Z,23.20
2023-06-08T00:40:32.653Z,26.50
2023-06-08T00:43:01.732Z,23.47
2023-06-08T00:45:29.464Z,31.40
2023-06-08T00:47:57.253Z,23.20
2023-06-08T00:50:25.788Z,23.93
2023-06-08T00:52:53.610Z,37.33
2023-06-08T00:55:22.122Z,25.93
2023-06-08T00:57:51.199Z,29.50
2023-06-08T01:00:20.609Z,29.83
2023-06-08T01:02:49.299Z,22.50
2023-06-08T01:05:18.376Z,29.97
2023-06-08T01:07:54.339Z,34.00
2023-06-08T01:10:29.157Z,33.57
2023-06-08T01:17:43.647Z,29.57
2023-06-08T01:20:30.774Z,43.27
2023-06-08T01:23:10.892Z,31.30
2023-06-08T01:25:41.305Z,43.03
2023-06-08T01:28:14.574Z,29.73
2023-06-08T01:30:43.745Z,32.40
2023-06-08T01:33:13.148Z,17.83
2023-06-08T01:35:41.353Z,35.37
2023-06-08T01:38:15.756Z,34.20
2023-06-08T01:40:47.858Z,31.20
2023-06-08T01:43:16.263Z,32.37
2023-06-08T01:45:48.227Z,38.27
2023-06-08T01:48:16.355Z,34.07
2023-06-08T01:50:45.095Z,33.30
2023-06-08T01:53:12.872Z,32.50
2023-06-08T01:55:40.570Z,35.97
2023-06-08T01:58:09.646Z,33.27
2023-06-08T02:00:37.377Z,32.43
2023-06-08T02:03:05.295Z,42.43
2023-06-08T02:05:33.061Z,36.50
2023-06-08T02:08:00.806Z,32.43
2023-06-08T02:10:29.801Z,31.87
2023-06-08T02:12:57.518Z,33.80
2023-06-08T02:15:26.888Z,30.87
2023-06-08T02:17:54.655Z,34.87
2023-06-08T02:20:22.382Z,37.07
2023-06-08T02:22:50.098Z,33.60
2023-06-08T02:25:17.833Z,27.10
2023-06-08T02:27:45.716Z,32.00
2023-06-08T02:30:15.287Z,26.93
2023-06-08T02:32:46.985Z,30.00
2023-06-08T02:35:15.379Z,31.43
2023-06-08T02:37:43.861Z,31.20
2023-06-08T02:40:12.343Z,31.67
2023-06-08T02:42:40.054Z,33.20
2023-06-08T02:45:08.582Z,28.40
2023-06-08T02:47:36.509Z,32.40
2023-06-08T02:50:06.595Z,27.90
2023-06-08T02:52:35.217Z,31.33
2023-06-08T02:55:02.957Z,29.07
2023-06-08T02:57:30.716Z,31.40
2023-06-08T02:59:58.759Z,30.13
2023-06-08T03:02:28.589Z,28.03
2023-06-08T03:04:59.837Z,29.50
2023-06-08T03:07:29.365Z,24.30
2023-06-08T03:09:57.051Z,42.20
2023-06-08T03:12:24.789Z,33.17
2023-06-08T03:14:54.306Z,24.57
2023-06-08T03:17:22.072Z,27.07
2023-06-08T03:19:49.910Z,29.53
2023-06-08T03:22:17.656Z,29.73
2023-06-08T03:24:49.999Z,32.77
2023-06-08T03:27:18.172Z,33.80
2023-06-08T03:29:46.910Z,30.90
2023-06-08T03:32:14.664Z,36.10
2023-06-08T03:34:45.970Z,30.03
2023-06-08T03:37:13.689Z,22.77
2023-06-08T03:39:41.389Z,27.87
2023-06-08T03:42:10.963Z,33.17
2023-06-08T03:44:38.671Z,29.07
2023-06-08T03:47:10.143Z,33.17
2023-06-08T03:49:37.855Z,29.67
2023-06-08T03:52:06.667Z,27.97
2023-06-08T03:54:34.357Z,32.27
2023-06-08T03:57:02.028Z,34.43
2023-06-08T03:59:31.115Z,28.93
2023-06-08T04:01:58.848Z,34.13
2023-06-08T04:04:30.602Z,33.63
2023-06-08T04:07:01.444Z,30.80
2023-06-08T04:09:29.472Z,27.30
2023-06-08T04:11:57.399Z,28.57
2023-06-08T04:14:25.682Z,30.97
2023-06-08T04:16:54.779Z,30.67
2023-06-08T04:19:22.463Z,25.10
2023-06-08T04:21:50.736Z,26.17
2023-06-08T04:24:18.502Z,25.30
2023-06-08T04:26:46.506Z,29.50
2023-06-08T04:29:14.409Z,31.37
2023-06-08T04:31:42.256Z,27.67
2023-06-08T04:34:11.953Z,30.97
2023-06-08T04:36:41.737Z,28.93
2023-06-08T04:39:09.921Z,28.17
2023-06-08T04:41:37.736Z,23.53
2023-06-08T04:44:06.493Z,25.53
2023-06-08T04:46:38.731Z,23.67
2023-06-08T04:49:07.212Z,18.97
2023-06-08T04:51:40.831Z,25.27
2023-06-08T04:54:14.153Z,23.67
2023-06-08T04:56:42.422Z,22.60
2023-06-08T04:59:10.535Z,24.70
2023-06-08T05:01:38.408Z,26.63
2023-06-08T05:04:08.653Z,19.53
2023-06-08T05:06:38.415Z,26.33
2023-06-08T05:09:06.533Z,26.50
2023-06-08T05:11:34.216Z,29.80
2023-06-08T05:14:01.942Z,24.13
2023-06-08T05:16:29.673Z,21.07
2023-06-08T05:18:57.500Z,21.57
2023-06-08T05:21:25.298Z,21.77
2023-06-08T05:23:54.427Z,25.67
2023-06-08T05:26:23.050Z,23.73
2023-06-08T05:28:50.762Z,22.33
2023-06-08T05:31:18.479Z,22.30
2023-06-08T05:33:46.209Z,21.13
2023-06-08T05:36:14.780Z,20.10
2023-06-08T05:38:43.105Z,22.43
2023-06-08T05:41:12.186Z,20.60
2023-06-08T05:43:39.889Z,12.47
2023-06-08T05:46:07.599Z,17.83
2023-06-08T05:48:35.356Z,19.13
2023-06-08T05:51:04.026Z,14.67
2023-06-08T05:53:32.005Z,17.87
2023-06-08T05:55:59.704Z,22.20
2023-06-08T05:58:40.794Z,18.23
2023-06-08T06:01:16.439Z,17.93
2023-06-08T06:03:44.261Z,15.33
2023-06-08T06:06:13.034Z,21.20
2023-06-08T06:08:44.382Z,19.63
2023-06-08T06:11:12.567Z,20.77
2023-06-08T06:13:41.770Z,15.87
2023-06-08T06:16:09.556Z,15.90
2023-06-08T06:18:37.897Z,15.47
2023-06-08T06:21:05.621Z,20.27
2023-06-08T06:23:33.377Z,21.77
2023-06-08T06:26:01.142Z,16.67
2023-06-08T06:28:28.964Z,19.00
2023-06-08T06:30:58.038Z,18.37
2023-06-08T06:33:26.017Z,16.03
2023-06-08T06:35:54.981Z,14.00
2023-06-08T06:38:22.856Z,18.60
2023-06-08T06:40:53.570Z,15.83
2023-06-08T06:43:22.138Z,23.07
2023-06-08T06:45:51.850Z,21.00
2023-06-08T06:48:23.822Z,18.23
2023-06-08T06:50:53.902Z,19.10
2023-06-08T06:53:21.713Z,19.37
2023-06-08T06:55:49.628Z,18.97
2023-06-08T06:58:17.424Z,17.27
2023-06-08T07:00:45.549Z,19.47
2023-06-08T07:03:13.830Z,18.37
2023-06-08T07:05:43.016Z,20.17
2023-06-08T07:08:11.433Z,16.10
2023-06-08T07:10:39.161Z,18.30
2023-06-08T07:13:06.894Z,15.10
2023-06-08T07:15:34.878Z,16.80
2023-06-08T07:18:02.616Z,16.13
2023-06-08T07:20:30.320Z,15.20
2023-06-08T07:23:07.626Z,19.80
2023-06-08T07:26:26.773Z,18.53
2023-06-08T07:28:34.965Z,15.43
2023-06-08T07:31:02.705Z,19.07
2023-06-08T07:33:30.515Z,15.97
2023-06-08T07:35:58.228Z,19.43
2023-06-08T07:38:27.417Z,16.10
2023-06-08T07:40:55.692Z,21.07
2023-06-08T07:43:23.390Z,23.43
2023-06-08T07:45:51.758Z,15.70
2023-06-08T07:48:19.493Z,21.03
2023-06-08T07:50:47.210Z,17.60
2023-06-08T07:53:16.076Z,17.57
2023-06-08T07:55:45.169Z,15.30
2023-06-08T07:58:12.918Z,15.37
2023-06-08T08:00:41.676Z,19.47
2023-06-08T08:03:09.579Z,19.77
2023-06-08T08:05:37.444Z,16.70
2023-06-08T08:08:05.463Z,17.50
2023-06-08T08:10:33.154Z,19.43
2023-06-08T08:13:02.239Z,16.73
2023-06-08T08:15:29.937Z,20.40
2023-06-08T08:17:58.222Z,27.03
2023-06-08T08:20:25.948Z,18.43
2023-06-08T08:22:53.650Z,16.97
2023-06-08T08:25:21.818Z,18.43
2023-06-08T08:27:49.541Z,17.70
2023-06-08T08:30:19.046Z,20.83
2023-06-08T08:32:46.936Z,18.53
2023-06-08T08:35:15.593Z,14.60
2023-06-08T08:37:43.543Z,15.67
2023-06-08T08:40:12.535Z,17.37
2023-06-08T08:42:44.469Z,16.33
2023-06-08T08:45:14.557Z,16.30
2023-06-08T08:47:43.846Z,14.17
2023-06-08T08:50:18.028Z,13.83
2023-06-08T08:52:47.156Z,16.80
2023-06-08T08:55:25.956Z,19.83
2023-06-08T08:58:02.629Z,17.13
2023-06-08T09:00:32.531Z,21.70
2023-06-08T09:03:02.524Z,14.77
2023-06-08T09:05:30.496Z,13.23
2023-06-08T09:07:58.247Z,16.83
2023-06-08T09:10:27.985Z,16.40
2023-06-08T09:12:58.098Z,13.87
2023-06-08T09:15:28.779Z,14.67
2023-06-08T09:17:58.433Z,16.97
2023-06-08T09:20:32.383Z,17.57
2023-06-08T09:23:00.192Z,14.63
2023-06-08T09:25:39.336Z,15.27
2023-06-08T09:28:17.536Z,12.73
2023-06-08T09:30:46.339Z,18.87
2023-06-08T09:33:22.412Z,16.40
2023-06-08T09:36:06.125Z,14.87
2023-06-08T09:38:34.862Z,15.00
2023-06-08T09:41:16.135Z,17.30
2023-06-08T09:43:44.769Z,11.80
2023-06-08T09:46:17.418Z,13.63
2023-06-08T09:48:55.089Z,13.73
2023-06-08T09:51:25.698Z,11.17
2023-06-08T09:53:56.429Z,14.73
2023-06-08T09:56:24.516Z,13.10
2023-06-08T09:58:53.408Z,15.80
2023-06-08T10:01:24.110Z,15.23
2023-06-08T10:03:54.976Z,14.27
2023-06-08T10:06:26.763Z,15.53
2023-06-08T10:08:55.868Z,12.87
2023-06-08T10:11:23.782Z,12.53
2023-06-08T10:13:52.185Z,14.37
2023-06-08T10:16:20.248Z,20.07
2023-06-08T10:18:48.712Z,15.40
2023-06-08T10:21:16.543Z,15.87
2023-06-08T10:23:46.131Z,13.77
2023-06-08T10:26:14.304Z,10.20
2023-06-08T10:29:20.873Z,12.87
2023-06-08T10:31:50.326Z,16.23
2023-06-08T10:34:18.633Z,15.57
2023-06-08T10:36:46.685Z,17.33
2023-06-08T10:39:17.786Z,10.23
2023-06-08T10:41:47.012Z,15.50
2023-06-08T10:44:32.390Z,18.27
2023-06-08T10:47:04.303Z,16.20
2023-06-08T10:49:35.776Z,17.23
2023-06-08T10:52:04.782Z,13.70
2023-06-08T10:55:03.785Z,11.80
2023-06-08T10:57:40.910Z,11.67
2023-06-08T11:00:45.238Z,15.97
2023-06-08T11:03:14.661Z,14.80
2023-06-08T11:05:44.447Z,12.00
2023-06-08T11:08:12.296Z,15.67
2023-06-08T11:10:41.981Z,14.93
2023-06-08T11:13:11.283Z,8.97
2023-06-08T11:15:40.380Z,13.23
2023-06-08T11:18:09.453Z,12.30
2023-06-08T11:20:38.615Z,11.63
2023-06-08T11:23:08.649Z,14.10
2023-06-08T11:25:37.050Z,14.13
2023-06-08T11:28:08.429Z,11.90
2023-06-08T11:30:36.826Z,11.50
2023-06-08T11:33:06.493Z,18.30
2023-06-08T11:35:35.041Z,21.93
2023-06-08T11:38:03.581Z,17.77
2023-06-08T11:40:32.683Z,11.93
2023-06-08T11:43:01.792Z,12.63
2023-06-08T11:45:31.999Z,9.50
2023-06-08T11:48:15.447Z,11.60
2023-06-08T11:50:48.349Z,18.57
2023-06-08T11:53:18.156Z,13.77
2023-06-08T11:55:47.778Z,12.20
2023-06-08T11:58:15.970Z,12.87
2023-06-08T12:00:46.302Z,8.33
2023-06-08T12:03:14.141Z,13.93
2023-06-08T12:05:44.595Z,11.10
2023-06-08T12:08:16.015Z,12.23
2023-06-08T12:10:47.667Z,10.50
2023-06-08T12:13:17.099Z,10.97
2023-06-08T12:15:48.905Z,8.57
2023-06-08T12:18:17.912Z,12.73
2023-06-08T12:20:46.968Z,10.40
2023-06-08T12:23:15.994Z,9.83
2023-06-08T12:25:44.472Z,12.00
2023-06-08T12:28:18.113Z,8.13
2023-06-08T12:30:47.361Z,9.13
2023-06-08T12:33:18.645Z,9.47
2023-06-08T12:35:46.578Z,16.43
2023-06-08T12:38:14.553Z,8.57
2023-06-08T12:40:44.838Z,12.70
2023-06-08T12:43:12.581Z,8.20
2023-06-08T12:45:40.275Z,7.67
2023-06-08T12:48:09.547Z,9.13
2023-06-08T12:50:39.325Z,11.10
2023-06-08T12:53:07.072Z,8.73
2023-06-08T12:55:34.933Z,10.47
2023-06-08T12:58:02.637Z,11.33
2023-06-08T13:00:30.537Z,11.53
2023-06-08T13:02:58.663Z,11.37
2023-06-08T13:05:30.266Z,11.50
2023-06-08T13:08:06.646Z,19.40
2023-06-08T13:10:34.518Z,13.93
2023-06-08T13:13:03.601Z,9.93
2023-06-08T13:15:31.520Z,10.17
2023-06-08T13:18:00.515Z,12.77
2023-06-08T13:20:29.799Z,8.30
2023-06-08T13:22:57.503Z,12.77
2023-06-08T13:25:25.295Z,14.60
2023-06-08T13:27:53.021Z,9.47
2023-06-08T13:30:22.530Z,12.20
2023-06-08T13:32:50.469Z,7.43
2023-06-08T13:35:18.426Z,7.17
2023-06-08T13:37:48.238Z,10.87
2023-06-08T13:40:16.020Z,8.10
2023-06-08T13:42:43.753Z,10.23
2023-06-08T13:45:13.109Z,17.60
2023-06-08T13:47:42.054Z,12.10
2023-06-08T13:50:11.819Z,13.07
2023-06-08T13:52:40.247Z,10.77
2023-06-08T13:55:10.255Z,12.07
2023-06-08T13:57:38.064Z,10.23
2023-06-08T14:00:07.763Z,8.00
2023-06-08T14:02:35.880Z,11.60
2023-06-08T14:05:04.752Z,12.13
2023-06-08T14:07:32.858Z,12.67
2023-06-08T14:10:01.619Z,8.90
2023-06-08T14:12:30.669Z,9.77
2023-06-08T14:14:58.388Z,10.93
2023-06-08T14:17:26.832Z,9.20
2023-06-08T14:19:54.588Z,8.80
2023-06-08T14:22:22.343Z,13.63
2023-06-08T14:24:50.085Z,9.30
2023-06-08T14:27:17.759Z,10.57
2023-06-08T14:29:47.366Z,11.27
2023-06-08T14:32:15.202Z,7.57
2023-06-08T14:34:42.896Z,14.23
2023-06-08T14:37:10.651Z,9.40
2023-06-08T14:39:38.350Z,11.13
2023-06-08T14:42:07.686Z,8.80
2023-06-08T14:44:35.716Z,11.40
2023-06-08T14:47:05.364Z,7.03
2023-06-08T14:49:38.066Z,11.33
2023-06-08T14:52:07.182Z,11.43
2023-06-08T14:54:34.939Z,10.80
2023-06-08T14:57:03.197Z,15.93
2023-06-08T14:59:31.415Z,8.60
2023-06-08T15:01:59.195Z,11.77
2023-06-08T15:04:28.382Z,10.73
2023-06-08T15:06:56.223Z,8.70
2023-06-08T15:09:24.343Z,9.40
2023-06-08T15:11:52.094Z,10.10
2023-06-08T15:14:19.780Z,8.67
2023-06-08T15:16:47.536Z,9.27
2023-06-08T15:19:15.928Z,9.97
2023-06-08T15:21:45.316Z,9.60
2023-06-08T15:24:13.309Z,11.37
2023-06-08T15:26:41.580Z,13.63
2023-06-08T15:29:12.818Z,6.80
2023-06-08T15:31:41.824Z,11.17
2023-06-08T15:34:09.720Z,10.53
2023-06-08T15:36:37.621Z,8.73
2023-06-08T15:39:06.782Z,12.53
2023-06-08T15:41:34.468Z,7.60
2023-06-08T15:44:02.848Z,12.87
2023-06-08T15:46:30.567Z,10.47
2023-06-08T15:48:58.337Z,11.07
2023-06-08T15:51:29.866Z,11.60
2023-06-08T15:53:58.433Z,14.43
2023-06-08T15:56:27.717Z,11.10
2023-06-08T15:58:56.119Z,8.20
2023-06-08T16:01:24.172Z,10.73
2023-06-08T16:03:51.932Z,11.47
2023-06-08T16:06:19.883Z,11.20
2023-06-08T16:08:47.646Z,8.93
2023-06-08T16:11:15.320Z,10.27
2023-06-08T16:13:46.321Z,11.47
2023-06-08T16:16:14.015Z,8.70
2023-06-08T16:18:42.163Z,8.63
2023-06-08T16:21:09.865Z,9.83
2023-06-08T16:23:37.599Z,9.63
2023-06-08T16:26:05.442Z,14.20
2023-06-08T16:28:33.293Z,8.53
2023-06-08T16:31:02.348Z,9.33
2023-06-08T16:33:30.847Z,12.90
2023-06-08T16:35:58.523Z,7.07
2023-06-08T16:38:26.219Z,14.80
2023-06-08T16:40:54.049Z,13.37
2023-06-08T16:43:21.806Z,8.07
2023-06-08T16:45:50.135Z,12.53
2023-06-08T16:48:19.284Z,9.43
2023-06-08T16:50:47.120Z,9.97
2023-06-08T16:53:14.973Z,9.37
2023-06-08T16:55:42.684Z,12.73
2023-06-08T16:58:10.448Z,13.43
2023-06-08T17:00:38.252Z,13.80
2023-06-08T17:03:06.385Z,9.60
2023-06-08T17:05:35.481Z,10.37
2023-06-08T17:08:03.157Z,10.97
2023-06-08T17:10:32.015Z,10.63
2023-06-08T17:12:59.718Z,11.70
2023-06-08T17:15:27.480Z,8.97
2023-06-08T17:17:55.327Z,13.33
2023-06-08T17:20:23.967Z,13.03
2023-06-08T17:22:53.205Z,13.87
2023-06-08T17:25:20.956Z,11.87
2023-06-08T17:27:48.640Z,10.07
2023-06-08T17:30:16.481Z,12.53
2023-06-08T17:32:44.237Z,14.20
2023-06-08T17:35:12.012Z,11.20
2023-06-08T17:37:39.936Z,13.33
2023-06-08T17:40:10.652Z,10.10
2023-06-08T17:42:38.380Z,8.27
2023-06-08T17:45:07.180Z,15.97
2023-06-08T17:47:35.378Z,12.43
2023-06-08T17:50:03.099Z,9.23
2023-06-08T17:52:30.846Z,7.07
2023-06-08T17:54:58.601Z,8.93
2023-06-08T17:57:27.717Z,10.80
2023-06-08T17:59:55.413Z,10.57
2023-06-08T18:02:23.166Z,9.23
2023-06-08T18:04:50.877Z,10.60
2023-06-08T18:07:18.616Z,8.93
2023-06-08T18:09:46.292Z,8.97
2023-06-08T18:12:13.962Z,9.00
2023-06-08T18:14:43.067Z,6.13
2023-06-08T18:17:10.879Z,6.40
2023-06-08T18:19:38.804Z,13.07
2023-06-08T18:22:06.705Z,6.13
2023-06-08T18:24:34.401Z,9.43
2023-06-08T18:27:02.116Z,14.40
2023-06-08T18:29:29.797Z,8.30
2023-06-08T18:31:58.937Z,7.30
2023-06-08T18:34:26.772Z,9.60
2023-06-08T18:36:54.527Z,6.70
2023-06-08T18:39:22.234Z,5.63
2023-06-08T18:41:50.413Z,6.47
2023-06-08T18:44:18.114Z,10.00
2023-06-08T18:46:46.277Z,9.20
2023-06-08T18:49:20.350Z,9.30
2023-06-08T18:51:48.073Z,7.30
2023-06-08T18:54:15.999Z,12.47
2023-06-08T18:56:43.710Z,6.17
2023-06-08T18:59:11.415Z,6.83
2023-06-08T19:01:39.674Z,7.97
2023-06-08T19:04:07.468Z,11.17
2023-06-08T19:06:37.423Z,6.03
2023-06-08T19:09:05.162Z,6.83
2023-06-08T19:11:32.882Z,7.53
2023-06-08T19:14:02.230Z,7.57
2023-06-08T19:16:32.814Z,10.40
2023-06-08T19:19:06.549Z,5.33
2023-06-08T19:21:34.250Z,10.60
2023-06-08T19:24:04.190Z,11.27
2023-06-08T19:26:32.064Z,7.67
2023-06-08T19:29:00.000Z,9.07
2023-06-08T19:31:27.919Z,8.47
2023-06-08T19:33:55.664Z,10.70
2023-06-08T19:36:24.079Z,7.90
2023-06-08T19:38:54.276Z,10.73
2023-06-08T19:41:23.747Z,5.67
2023-06-08T19:43:51.818Z,9.47
2023-06-08T19:46:19.628Z,9.70
2023-06-08T19:48:48.048Z,9.97
2023-06-08T19:51:15.868Z,12.03
2023-06-08T19:53:43.674Z,8.97
2023-06-08T19:56:11.415Z,10.83
2023-06-08T19:58:40.749Z,14.97
2023-06-08T20:01:09.192Z,7.60
2023-06-08T20:03:37.079Z,7.37
2023-06-08T20:06:05.306Z,10.67
2023-06-08T20:08:32.998Z,10.37
2023-06-08T20:11:00.776Z,9.00
2023-06-08T20:13:28.493Z,10.13
2023-06-08T20:15:57.562Z,9.97
2023-06-08T20:18:25.326Z,10.60
2023-06-08T20:20:53.052Z,9.07
2023-06-08T20:23:20.772Z,12.30
2023-06-08T20:25:48.572Z,10.37
2023-06-08T20:28:16.330Z,4.87
2023-06-08T20:30:44.004Z,11.87
2023-06-08T20:33:13.137Z,10.17
2023-06-08T20:35:40.836Z,14.03
2023-06-08T20:38:08.584Z,12.50
2023-06-08T20:40:36.725Z,8.33
2023-06-08T20:43:04.483Z,9.60
2023-06-08T20:45:32.181Z,9.70
2023-06-08T20:47:59.914Z,10.90
2023-06-08T20:50:29.024Z,10.87
2023-06-08T20:52:57.958Z,10.93
2023-06-08T20:55:25.847Z,10.83
2023-06-08T20:57:53.564Z,12.07
2023-06-08T21:00:21.688Z,9.57
2023-06-08T21:02:51.146Z,12.07
2023-06-08T21:05:20.822Z,10.57
2023-06-08T21:07:50.021Z,12.80
2023-06-08T21:10:17.913Z,10.77
2023-06-08T21:12:45.689Z,11.33
2023-06-08T21:15:13.367Z,10.57
2023-06-08T21:17:41.167Z,9.77
2023-06-08T21:20:09.960Z,12.70
2023-06-08T21:22:37.691Z,12.37
2023-06-08T21:25:07.475Z,16.27
2023-06-08T21:27:35.409Z,13.97
2023-06-08T21:30:03.633Z,10.50
2023-06-08T21:32:31.506Z,7.27
2023-06-08T21:34:59.254Z,11.43
2023-06-08T21:37:27.796Z,11.07
2023-06-08T21:39:55.560Z,11.90
2023-06-08T21:42:24.652Z,7.73
2023-06-08T21:44:53.591Z,13.40
2023-06-08T21:47:21.341Z,8.47
2023-06-08T21:49:49.076Z,11.23
2023-06-08T21:52:17.115Z,12.33
2023-06-08T21:54:47.837Z,10.90
2023-06-08T21:57:16.045Z,10.73
2023-06-08T21:59:45.518Z,11.93
2023-06-08T22:02:13.307Z,10.77
2023-06-08T22:04:41.118Z,8.27
2023-06-08T22:07:08.838Z,9.50
2023-06-08T22:09:37.642Z,12.00
2023-06-08T22:12:06.585Z,7.80
2023-06-08T22:14:34.326Z,12.03
2023-06-08T22:17:03.447Z,12.33
2023-06-08T22:19:32.863Z,9.80
2023-06-08T22:22:02.015Z,17.97
2023-06-08T22:24:29.723Z,14.00
2023-06-08T22:26:57.408Z,15.03
2023-06-08T22:29:25.106Z,9.83
2023-06-08T22:31:52.843Z,8.43
2023-06-08T22:34:21.953Z,8.83
2023-06-08T22:36:49.627Z,11.10
2023-06-08T22:39:17.335Z,15.37
2023-06-08T22:41:45.029Z,16.13
2023-06-08T22:44:13.993Z,13.03
2023-06-08T22:46:42.556Z,10.07
2023-06-08T22:49:11.510Z,14.03
2023-06-08T22:51:41.911Z,11.43
2023-06-08T22:54:10.126Z,14.87
2023-06-08T22:56:37.823Z,9.90
2023-06-08T22:59:05.539Z,18.93
2023-06-08T23:01:33.313Z,18.50
2023-06-08T23:04:01.036Z,7.80
2023-06-08T23:06:28.794Z,18.17
2023-06-08T23:09:03.872Z,13.60
2023-06-08T23:11:33.218Z,12.03
2023-06-08T23:14:04.365Z,11.83
2023-06-08T23:16:32.615Z,10.53
2023-06-08T23:19:01.880Z,19.83
2023-06-08T23:21:32.500Z,17.43
2023-06-08T23:24:01.591Z,19.87
2023-06-08T23:26:29.911Z,12.43
2023-06-08T23:28:58.134Z,15.23
2023-06-08T23:31:26.044Z,13.07
2023-06-08T23:33:54.044Z,15.43
2023-06-08T23:36:21.880Z,13.23
2023-06-08T23:38:49.915Z,12.23
2023-06-08T23:41:19.010Z,11.07
2023-06-08T23:43:46.946Z,16.60
2023-06-08T23:46:15.617Z,14.40
2023-06-08T23:48:44.009Z,16.40
2023-06-08T23:51:12.781Z,10.67
2023-06-08T23:53:40.491Z,9.93
2023-06-08T23:56:08.251Z,17.43
2023-06-08T23:58:37.341Z,14.57
